sensor_id;sensor_type;location;lat;lon;timestamp;P1;durP1;ratioP1;P2;durP2;ratioP2
47844;SDS011;33605;48.822;8.796;2022-12-18T00:01:57;71.00;;;28.77;;
47844;SDS011;33605;48.822;8.796;2022-12-18T00:04:26;66.10;;;30.70;;
47844;SDS011;33605;48.822;8.796;2022-12-18T00:06:52;66.80;;;29.40;;
47844;SDS011;33605;48.822;8.796;2022-12-18T00:09:19;67.03;;;29.88;;
47844;SDS011;33605;48.822;8.796;2022-12-18T00:11:45;61.63;;;27.93;;
47844;SDS011;33605;48.822;8.796;2022-12-18T00:14:11;61.37;;;29.80;;
47844;SDS011;33605;48.822;8.796;2022-12-18T00:16:37;58.42;;;27.40;;
47844;SDS011;33605;48.822;8.796;2022-12-18T00:19:04;61.85;;;29.83;;
47844;SDS011;33605;48.822;8.796;2022-12-18T00:21:31;59.58;;;29.30;;
47844;SDS011;33605;48.822;8.796;2022-12-18T00:23:57;50.97;;;26.05;;
47844;SDS011;33605;48.822;8.796;2022-12-18T00:26:25;54.22;;;27.33;;
47844;SDS011;33605;48.822;8.796;2022-12-18T00:29:14;62.00;;;27.35;;
47844;SDS011;33605;48.822;8.796;2022-12-18T00:31:40;59.80;;;28.65;;
47844;SDS011;33605;48.822;8.796;2022-12-18T00:34:09;56.55;;;25.92;;
47844;SDS011;33605;48.822;8.796;2022-12-18T00:36:36;64.45;;;27.13;;
47844;SDS011;33605;48.822;8.796;2022-12-18T00:39:03;56.53;;;29.13;;
47844;SDS011;33605;48.822;8.796;2022-12-18T00:41:30;58.50;;;28.52;;
47844;SDS011;33605;48.822;8.796;2022-12-18T00:44:15;49.00;;;26.23;;
47844;SDS011;33605;48.822;8.796;2022-12-18T00:46:42;53.85;;;25.75;;
47844;SDS011;33605;48.822;8.796;2022-12-18T00:49:08;53.20;;;25.50;;
47844;SDS011;33605;48.822;8.796;2022-12-18T00:51:37;62.85;;;27.65;;
47844;SDS011;33605;48.822;8.796;2022-12-18T00:54:03;49.13;;;25.73;;
47844;SDS011;33605;48.822;8.796;2022-12-18T00:56:28;55.80;;;26.40;;
47844;SDS011;33605;48.822;8.796;2022-12-18T00:58:54;53.80;;;27.53;;
47844;SDS011;33605;48.822;8.796;2022-12-18T01:01:20;50.17;;;26.63;;
47844;SDS011;33605;48.822;8.796;2022-12-18T01:03:46;57.65;;;27.50;;
47844;SDS011;33605;48.822;8.796;2022-12-18T01:06:12;54.97;;;28.90;;
47844;SDS011;33605;48.822;8.796;2022-12-18T01:08:39;57.95;;;26.48;;
47844;SDS011;33605;48.822;8.796;2022-12-18T01:11:12;53.27;;;26.97;;
47844;SDS011;33605;48.822;8.796;2022-12-18T01:13:41;49.78;;;25.13;;
47844;SDS011;33605;48.822;8.796;2022-12-18T01:16:07;62.55;;;27.65;;
47844;SDS011;33605;48.822;8.796;2022-12-18T01:18:34;57.50;;;25.10;;
47844;SDS011;33605;48.822;8.796;2022-12-18T01:20:59;54.90;;;28.17;;
47844;SDS011;33605;48.822;8.796;2022-12-18T01:23:25;52.67;;;25.53;;
47844;SDS011;33605;48.822;8.796;2022-12-18T01:25:51;52.83;;;27.30;;
47844;SDS011;33605;48.822;8.796;2022-12-18T01:28:17;46.57;;;24.90;;
47844;SDS011;33605;48.822;8.796;2022-12-18T01:30:43;54.10;;;27.60;;
47844;SDS011;33605;48.822;8.796;2022-12-18T01:33:08;52.73;;;24.83;;
47844;SDS011;33605;48.822;8.796;2022-12-18T01:35:39;45.77;;;23.50;;
47844;SDS011;33605;48.822;8.796;2022-12-18T01:38:08;57.15;;;25.63;;
47844;SDS011;33605;48.822;8.796;2022-12-18T01:40:34;53.50;;;26.70;;
47844;SDS011;33605;48.822;8.796;2022-12-18T01:43:00;54.67;;;26.57;;
47844;SDS011;33605;48.822;8.796;2022-12-18T01:45:30;55.43;;;26.97;;
47844;SDS011;33605;48.822;8.796;2022-12-18T01:48:00;64.28;;;26.58;;
47844;SDS011;33605;48.822;8.796;2022-12-18T01:50:34;48.78;;;25.65;;
47844;SDS011;33605;48.822;8.796;2022-12-18T01:53:05;48.22;;;23.30;;
47844;SDS011;33605;48.822;8.796;2022-12-18T01:55:43;54.55;;;24.83;;
47844;SDS011;33605;48.822;8.796;2022-12-18T01:58:12;55.92;;;24.65;;
47844;SDS011;33605;48.822;8.796;2022-12-18T02:00:38;51.40;;;24.42;;
47844;SDS011;33605;48.822;8.796;2022-12-18T02:03:03;47.23;;;24.87;;
47844;SDS011;33605;48.822;8.796;2022-12-18T02:13:51;47.05;;;22.27;;
47844;SDS011;33605;48.822;8.796;2022-12-18T02:22:21;40.95;;;21.88;;
47844;SDS011;33605;48.822;8.796;2022-12-18T02:27:39;41.83;;;23.58;;
47844;SDS011;33605;48.822;8.796;2022-12-18T02:30:06;45.28;;;23.50;;
47844;SDS011;33605;48.822;8.796;2022-12-18T02:32:37;41.53;;;22.50;;
47844;SDS011;33605;48.822;8.796;2022-12-18T02:35:15;50.42;;;24.33;;
47844;SDS011;33605;48.822;8.796;2022-12-18T02:37:44;47.88;;;24.10;;
47844;SDS011;33605;48.822;8.796;2022-12-18T02:40:11;43.45;;;22.48;;
47844;SDS011;33605;48.822;8.796;2022-12-18T02:42:39;46.85;;;23.42;;
47844;SDS011;33605;48.822;8.796;2022-12-18T02:45:05;59.57;;;23.90;;
47844;SDS011;33605;48.822;8.796;2022-12-18T02:47:32;55.45;;;23.25;;
47844;SDS011;33605;48.822;8.796;2022-12-18T02:52:37;49.05;;;22.75;;
47844;SDS011;33605;48.822;8.796;2022-12-18T03:01:13;51.95;;;22.58;;
47844;SDS011;33605;48.822;8.796;2022-12-18T03:09:02;50.00;;;22.63;;
47844;SDS011;33605;48.822;8.796;2022-12-18T03:11:33;38.15;;;20.23;;
47844;SDS011;33605;48.822;8.796;2022-12-18T03:14:20;45.40;;;22.55;;
47844;SDS011;33605;48.822;8.796;2022-12-18T03:16:48;46.17;;;21.35;;
47844;SDS011;33605;48.822;8.796;2022-12-18T03:19:18;49.85;;;23.58;;
47844;SDS011;33605;48.822;8.796;2022-12-18T03:21:49;45.45;;;21.60;;
47844;SDS011;33605;48.822;8.796;2022-12-18T03:24:20;45.33;;;22.88;;
47844;SDS011;33605;48.822;8.796;2022-12-18T03:26:47;43.13;;;21.98;;
47844;SDS011;33605;48.822;8.796;2022-12-18T03:29:28;46.17;;;22.05;;
47844;SDS011;33605;48.822;8.796;2022-12-18T03:31:58;46.70;;;21.48;;
47844;SDS011;33605;48.822;8.796;2022-12-18T03:34:33;52.38;;;24.35;;
47844;SDS011;33605;48.822;8.796;2022-12-18T03:37:02;41.30;;;20.67;;
47844;SDS011;33605;48.822;8.796;2022-12-18T03:39:28;37.85;;;20.27;;
47844;SDS011;33605;48.822;8.796;2022-12-18T03:50:22;44.92;;;21.92;;
47844;SDS011;33605;48.822;8.796;2022-12-18T03:52:49;43.53;;;21.25;;
47844;SDS011;33605;48.822;8.796;2022-12-18T03:55:20;38.65;;;18.80;;
47844;SDS011;33605;48.822;8.796;2022-12-18T03:57:48;41.60;;;20.23;;
47844;SDS011;33605;48.822;8.796;2022-12-18T04:00:15;40.45;;;19.70;;
47844;SDS011;33605;48.822;8.796;2022-12-18T04:02:43;38.38;;;20.45;;
47844;SDS011;33605;48.822;8.796;2022-12-18T04:05:13;48.85;;;22.15;;
47844;SDS011;33605;48.822;8.796;2022-12-18T04:07:40;43.88;;;22.08;;
47844;SDS011;33605;48.822;8.796;2022-12-18T04:10:07;42.50;;;20.77;;
47844;SDS011;33605;48.822;8.796;2022-12-18T04:12:37;49.58;;;21.67;;
47844;SDS011;33605;48.822;8.796;2022-12-18T04:15:03;39.88;;;18.58;;
47844;SDS011;33605;48.822;8.796;2022-12-18T04:17:29;42.50;;;18.90;;
47844;SDS011;33605;48.822;8.796;2022-12-18T04:19:55;41.30;;;20.60;;
47844;SDS011;33605;48.822;8.796;2022-12-18T04:22:21;40.70;;;21.30;;
47844;SDS011;33605;48.822;8.796;2022-12-18T04:24:47;38.73;;;21.27;;
47844;SDS011;33605;48.822;8.796;2022-12-18T04:27:12;46.17;;;23.23;;
47844;SDS011;33605;48.822;8.796;2022-12-18T04:29:38;42.75;;;20.88;;
47844;SDS011;33605;48.822;8.796;2022-12-18T04:32:04;41.80;;;21.67;;
47844;SDS011;33605;48.822;8.796;2022-12-18T04:34:30;38.43;;;20.90;;
47844;SDS011;33605;48.822;8.796;2022-12-18T04:36:55;37.07;;;20.83;;
47844;SDS011;33605;48.822;8.796;2022-12-18T04:39:21;43.27;;;21.13;;
47844;SDS011;33605;48.822;8.796;2022-12-18T04:41:46;40.00;;;21.67;;
47844;SDS011;33605;48.822;8.796;2022-12-18T04:44:12;40.80;;;19.70;;
47844;SDS011;33605;48.822;8.796;2022-12-18T04:46:38;36.70;;;18.67;;
47844;SDS011;33605;48.822;8.796;2022-12-18T04:49:04;38.90;;;19.50;;
47844;SDS011;33605;48.822;8.796;2022-12-18T04:51:29;38.00;;;20.13;;
47844;SDS011;33605;48.822;8.796;2022-12-18T04:53:55;34.13;;;18.73;;
47844;SDS011;33605;48.822;8.796;2022-12-18T04:56:21;40.23;;;17.93;;
47844;SDS011;33605;48.822;8.796;2022-12-18T04:58:46;44.60;;;18.90;;
47844;SDS011;33605;48.822;8.796;2022-12-18T05:01:13;41.13;;;19.93;;
47844;SDS011;33605;48.822;8.796;2022-12-18T05:03:40;43.25;;;21.13;;
47844;SDS011;33605;48.822;8.796;2022-12-18T05:06:05;43.13;;;20.40;;
47844;SDS011;33605;48.822;8.796;2022-12-18T05:08:32;37.30;;;19.23;;
47844;SDS011;33605;48.822;8.796;2022-12-18T05:11:08;36.87;;;18.07;;
47844;SDS011;33605;48.822;8.796;2022-12-18T05:13:35;36.05;;;18.98;;
47844;SDS011;33605;48.822;8.796;2022-12-18T05:16:02;37.45;;;19.10;;
47844;SDS011;33605;48.822;8.796;2022-12-18T05:18:28;37.78;;;19.88;;
47844;SDS011;33605;48.822;8.796;2022-12-18T05:20:54;38.83;;;21.60;;
47844;SDS011;33605;48.822;8.796;2022-12-18T05:23:20;39.87;;;17.50;;
47844;SDS011;33605;48.822;8.796;2022-12-18T05:25:57;35.22;;;18.75;;
47844;SDS011;33605;48.822;8.796;2022-12-18T05:28:24;32.35;;;16.63;;
47844;SDS011;33605;48.822;8.796;2022-12-18T05:30:52;30.83;;;15.70;;
47844;SDS011;33605;48.822;8.796;2022-12-18T05:33:19;31.30;;;17.40;;
47844;SDS011;33605;48.822;8.796;2022-12-18T05:35:52;33.00;;;17.45;;
47844;SDS011;33605;48.822;8.796;2022-12-18T05:38:20;30.25;;;16.95;;
47844;SDS011;33605;48.822;8.796;2022-12-18T05:40:49;38.90;;;17.25;;
47844;SDS011;33605;48.822;8.796;2022-12-18T05:43:16;35.30;;;15.95;;
47844;SDS011;33605;48.822;8.796;2022-12-18T05:45:42;35.97;;;17.00;;
47844;SDS011;33605;48.822;8.796;2022-12-18T05:48:08;35.60;;;16.23;;
47844;SDS011;33605;48.822;8.796;2022-12-18T05:50:37;37.75;;;17.65;;
47844;SDS011;33605;48.822;8.796;2022-12-18T05:53:04;36.53;;;17.33;;
47844;SDS011;33605;48.822;8.796;2022-12-18T05:55:37;39.30;;;16.38;;
47844;SDS011;33605;48.822;8.796;2022-12-18T05:58:05;40.47;;;17.30;;
47844;SDS011;33605;48.822;8.796;2022-12-18T06:00:33;34.90;;;15.55;;
47844;SDS011;33605;48.822;8.796;2022-12-18T06:03:00;36.45;;;16.08;;
47844;SDS011;33605;48.822;8.796;2022-12-18T06:05:27;33.15;;;16.52;;
47844;SDS011;33605;48.822;8.796;2022-12-18T06:07:53;36.73;;;16.90;;
47844;SDS011;33605;48.822;8.796;2022-12-18T06:10:18;43.83;;;17.40;;
47844;SDS011;33605;48.822;8.796;2022-12-18T06:12:44;40.60;;;17.70;;
47844;SDS011;33605;48.822;8.796;2022-12-18T06:15:10;48.30;;;18.83;;
47844;SDS011;33605;48.822;8.796;2022-12-18T06:17:36;43.73;;;17.73;;
47844;SDS011;33605;48.822;8.796;2022-12-18T06:20:02;42.17;;;18.85;;
47844;SDS011;33605;48.822;8.796;2022-12-18T06:22:30;41.75;;;18.27;;
47844;SDS011;33605;48.822;8.796;2022-12-18T06:24:57;44.78;;;19.23;;
47844;SDS011;33605;48.822;8.796;2022-12-18T06:27:22;33.50;;;17.97;;
47844;SDS011;33605;48.822;8.796;2022-12-18T06:29:48;48.50;;;18.83;;
47844;SDS011;33605;48.822;8.796;2022-12-18T06:32:14;47.70;;;18.77;;
47844;SDS011;33605;48.822;8.796;2022-12-18T06:34:40;40.58;;;18.48;;
47844;SDS011;33605;48.822;8.796;2022-12-18T06:37:06;42.87;;;17.30;;
47844;SDS011;33605;48.822;8.796;2022-12-18T06:39:31;43.17;;;18.03;;
47844;SDS011;33605;48.822;8.796;2022-12-18T06:41:57;47.77;;;18.50;;
47844;SDS011;33605;48.822;8.796;2022-12-18T06:44:23;39.03;;;17.10;;
47844;SDS011;33605;48.822;8.796;2022-12-18T06:46:48;42.80;;;19.60;;
47844;SDS011;33605;48.822;8.796;2022-12-18T06:49:14;46.80;;;18.90;;
47844;SDS011;33605;48.822;8.796;2022-12-18T06:51:41;38.28;;;18.13;;
47844;SDS011;33605;48.822;8.796;2022-12-18T06:54:07;42.22;;;17.67;;
47844;SDS011;33605;48.822;8.796;2022-12-18T06:56:33;35.23;;;16.87;;
47844;SDS011;33605;48.822;8.796;2022-12-18T06:58:59;45.72;;;19.42;;
47844;SDS011;33605;48.822;8.796;2022-12-18T07:01:24;46.40;;;18.40;;
47844;SDS011;33605;48.822;8.796;2022-12-18T07:03:54;39.80;;;18.53;;
47844;SDS011;33605;48.822;8.796;2022-12-18T07:06:21;45.03;;;18.20;;
47844;SDS011;33605;48.822;8.796;2022-12-18T07:08:49;43.30;;;19.30;;
47844;SDS011;33605;48.822;8.796;2022-12-18T07:11:16;39.25;;;19.13;;
47844;SDS011;33605;48.822;8.796;2022-12-18T07:13:42;40.60;;;18.42;;
47844;SDS011;33605;48.822;8.796;2022-12-18T07:16:09;44.37;;;17.20;;
47844;SDS011;33605;48.822;8.796;2022-12-18T07:18:39;43.28;;;18.05;;
47844;SDS011;33605;48.822;8.796;2022-12-18T07:21:06;46.10;;;19.43;;
47844;SDS011;33605;48.822;8.796;2022-12-18T07:23:36;49.17;;;19.27;;
47844;SDS011;33605;48.822;8.796;2022-12-18T07:26:02;42.60;;;19.10;;
47844;SDS011;33605;48.822;8.796;2022-12-18T07:28:30;41.55;;;18.30;;
47844;SDS011;33605;48.822;8.796;2022-12-18T07:30:56;40.45;;;18.73;;
47844;SDS011;33605;48.822;8.796;2022-12-18T07:33:22;46.23;;;21.20;;
47844;SDS011;33605;48.822;8.796;2022-12-18T07:35:47;46.27;;;21.20;;
47844;SDS011;33605;48.822;8.796;2022-12-18T07:38:13;47.93;;;19.97;;
47844;SDS011;33605;48.822;8.796;2022-12-18T07:40:39;42.37;;;20.63;;
47844;SDS011;33605;48.822;8.796;2022-12-18T07:43:04;45.27;;;19.53;;
47844;SDS011;33605;48.822;8.796;2022-12-18T07:45:30;49.30;;;20.10;;
47844;SDS011;33605;48.822;8.796;2022-12-18T07:47:59;39.73;;;18.17;;
47844;SDS011;33605;48.822;8.796;2022-12-18T07:50:24;42.38;;;18.77;;
47844;SDS011;33605;48.822;8.796;2022-12-18T07:52:50;41.57;;;19.20;;
47844;SDS011;33605;48.822;8.796;2022-12-18T07:55:16;41.83;;;19.40;;
47844;SDS011;33605;48.822;8.796;2022-12-18T07:57:42;42.78;;;18.55;;
47844;SDS011;33605;48.822;8.796;2022-12-18T08:00:07;42.40;;;20.37;;
47844;SDS011;33605;48.822;8.796;2022-12-18T08:02:33;46.92;;;20.52;;
47844;SDS011;33605;48.822;8.796;2022-12-18T08:04:59;39.33;;;19.60;;
47844;SDS011;33605;48.822;8.796;2022-12-18T08:07:24;42.80;;;20.57;;
47844;SDS011;33605;48.822;8.796;2022-12-18T08:09:50;48.10;;;20.00;;
47844;SDS011;33605;48.822;8.796;2022-12-18T08:12:15;42.70;;;19.23;;
47844;SDS011;33605;48.822;8.796;2022-12-18T08:14:41;38.67;;;18.33;;
47844;SDS011;33605;48.822;8.796;2022-12-18T08:17:06;38.50;;;17.80;;
47844;SDS011;33605;48.822;8.796;2022-12-18T08:19:32;45.17;;;19.10;;
47844;SDS011;33605;48.822;8.796;2022-12-18T08:21:57;44.30;;;20.93;;
47844;SDS011;33605;48.822;8.796;2022-12-18T08:24:23;39.73;;;19.03;;
47844;SDS011;33605;48.822;8.796;2022-12-18T08:26:49;41.27;;;19.60;;
47844;SDS011;33605;48.822;8.796;2022-12-18T08:29:15;45.88;;;20.65;;
47844;SDS011;33605;48.822;8.796;2022-12-18T08:31:41;43.13;;;20.00;;
47844;SDS011;33605;48.822;8.796;2022-12-18T08:34:07;39.90;;;20.20;;
47844;SDS011;33605;48.822;8.796;2022-12-18T08:36:33;46.22;;;19.30;;
47844;SDS011;33605;48.822;8.796;2022-12-18T08:38:58;44.30;;;20.33;;
47844;SDS011;33605;48.822;8.796;2022-12-18T08:41:24;43.30;;;21.60;;
47844;SDS011;33605;48.822;8.796;2022-12-18T08:43:50;39.63;;;20.27;;
47844;SDS011;33605;48.822;8.796;2022-12-18T08:46:35;34.75;;;17.33;;
47844;SDS011;33605;48.822;8.796;2022-12-18T08:49:05;41.65;;;20.67;;
47844;SDS011;33605;48.822;8.796;2022-12-18T08:51:38;45.53;;;20.10;;
47844;SDS011;33605;48.822;8.796;2022-12-18T08:54:04;37.40;;;19.60;;
47844;SDS011;33605;48.822;8.796;2022-12-18T08:56:31;45.30;;;20.25;;
47844;SDS011;33605;48.822;8.796;2022-12-18T08:58:57;45.60;;;21.10;;
47844;SDS011;33605;48.822;8.796;2022-12-18T09:01:23;46.10;;;21.17;;
47844;SDS011;33605;48.822;8.796;2022-12-18T09:03:49;46.33;;;20.03;;
47844;SDS011;33605;48.822;8.796;2022-12-18T09:06:16;47.67;;;21.10;;
47844;SDS011;33605;48.822;8.796;2022-12-18T09:08:43;43.85;;;20.17;;
47844;SDS011;33605;48.822;8.796;2022-12-18T09:11:19;43.47;;;20.43;;
47844;SDS011;33605;48.822;8.796;2022-12-18T09:13:47;47.23;;;21.37;;
47844;SDS011;33605;48.822;8.796;2022-12-18T09:16:12;41.20;;;21.60;;
47844;SDS011;33605;48.822;8.796;2022-12-18T09:18:38;42.47;;;19.23;;
47844;SDS011;33605;48.822;8.796;2022-12-18T09:21:22;46.70;;;22.40;;
47844;SDS011;33605;48.822;8.796;2022-12-18T09:23:49;44.97;;;20.63;;
47844;SDS011;33605;48.822;8.796;2022-12-18T09:26:15;40.87;;;21.13;;
47844;SDS011;33605;48.822;8.796;2022-12-18T09:28:41;43.03;;;19.90;;
47844;SDS011;33605;48.822;8.796;2022-12-18T09:31:07;41.03;;;22.33;;
47844;SDS011;33605;48.822;8.796;2022-12-18T09:33:34;38.63;;;18.60;;
47844;SDS011;33605;48.822;8.796;2022-12-18T09:36:02;40.70;;;20.03;;
47844;SDS011;33605;48.822;8.796;2022-12-18T09:38:31;43.33;;;20.30;;
47844;SDS011;33605;48.822;8.796;2022-12-18T09:40:59;44.47;;;21.70;;
47844;SDS011;33605;48.822;8.796;2022-12-18T09:43:33;46.23;;;20.03;;
47844;SDS011;33605;48.822;8.796;2022-12-18T09:46:06;41.73;;;19.97;;
47844;SDS011;33605;48.822;8.796;2022-12-18T09:48:46;41.10;;;20.13;;
47844;SDS011;33605;48.822;8.796;2022-12-18T09:51:26;39.00;;;20.40;;
47844;SDS011;33605;48.822;8.796;2022-12-18T09:54:05;46.97;;;21.00;;
47844;SDS011;33605;48.822;8.796;2022-12-18T09:56:37;40.43;;;20.20;;
47844;SDS011;33605;48.822;8.796;2022-12-18T09:59:18;38.70;;;20.07;;
47844;SDS011;33605;48.822;8.796;2022-12-18T10:01:51;46.23;;;22.93;;
47844;SDS011;33605;48.822;8.796;2022-12-18T10:04:17;41.33;;;21.07;;
47844;SDS011;33605;48.822;8.796;2022-12-18T10:06:52;41.97;;;20.27;;
47844;SDS011;33605;48.822;8.796;2022-12-18T10:09:42;36.47;;;19.50;;
47844;SDS011;33605;48.822;8.796;2022-12-18T10:12:25;45.87;;;21.57;;
47844;SDS011;33605;48.822;8.796;2022-12-18T10:15:10;41.97;;;21.23;;
47844;SDS011;33605;48.822;8.796;2022-12-18T10:23:01;42.47;;;21.13;;
47844;SDS011;33605;48.822;8.796;2022-12-18T10:25:38;40.97;;;20.93;;
47844;SDS011;33605;48.822;8.796;2022-12-18T10:28:14;40.30;;;21.53;;
47844;SDS011;33605;48.822;8.796;2022-12-18T10:30:43;39.40;;;21.90;;
47844;SDS011;33605;48.822;8.796;2022-12-18T10:33:13;36.10;;;20.43;;
47844;SDS011;33605;48.822;8.796;2022-12-18T10:35:41;39.73;;;21.83;;
47844;SDS011;33605;48.822;8.796;2022-12-18T10:43:51;39.50;;;22.77;;
47844;SDS011;33605;48.822;8.796;2022-12-18T10:51:04;34.30;;;20.63;;
47844;SDS011;33605;48.822;8.796;2022-12-18T10:53:32;42.60;;;22.03;;
47844;SDS011;33605;48.822;8.796;2022-12-18T10:56:00;39.77;;;23.43;;
47844;SDS011;33605;48.822;8.796;2022-12-18T10:58:32;41.13;;;21.90;;
47844;SDS011;33605;48.822;8.796;2022-12-18T11:03:43;39.83;;;21.60;;
47844;SDS011;33605;48.822;8.796;2022-12-18T11:06:18;44.00;;;22.47;;
47844;SDS011;33605;48.822;8.796;2022-12-18T11:09:03;40.83;;;22.20;;
47844;SDS011;33605;48.822;8.796;2022-12-18T11:11:31;38.20;;;21.03;;
47844;SDS011;33605;48.822;8.796;2022-12-18T11:16:28;44.20;;;22.10;;
47844;SDS011;33605;48.822;8.796;2022-12-18T11:19:07;44.33;;;23.73;;
47844;SDS011;33605;48.822;8.796;2022-12-18T11:21:41;37.20;;;22.63;;
47844;SDS011;33605;48.822;8.796;2022-12-18T11:24:13;44.60;;;23.00;;
47844;SDS011;33605;48.822;8.796;2022-12-18T11:26:46;46.83;;;24.67;;
47844;SDS011;33605;48.822;8.796;2022-12-18T11:29:16;43.90;;;23.20;;
47844;SDS011;33605;48.822;8.796;2022-12-18T11:31:43;44.10;;;24.13;;
47844;SDS011;33605;48.822;8.796;2022-12-18T11:34:28;42.43;;;23.10;;
47844;SDS011;33605;48.822;8.796;2022-12-18T11:36:55;41.57;;;22.50;;
47844;SDS011;33605;48.822;8.796;2022-12-18T11:39:33;37.73;;;23.00;;
47844;SDS011;33605;48.822;8.796;2022-12-18T11:42:12;37.50;;;20.63;;
47844;SDS011;33605;48.822;8.796;2022-12-18T11:44:59;36.67;;;23.30;;
47844;SDS011;33605;48.822;8.796;2022-12-18T11:49:53;38.47;;;22.73;;
47844;SDS011;33605;48.822;8.796;2022-12-18T11:52:26;44.53;;;24.87;;
47844;SDS011;33605;48.822;8.796;2022-12-18T11:54:58;42.47;;;24.47;;
47844;SDS011;33605;48.822;8.796;2022-12-18T12:00:15;39.60;;;23.63;;
47844;SDS011;33605;48.822;8.796;2022-12-18T12:08:20;46.00;;;23.83;;
47844;SDS011;33605;48.822;8.796;2022-12-18T12:11:02;40.80;;;23.43;;
47844;SDS011;33605;48.822;8.796;2022-12-18T12:16:27;44.90;;;25.00;;
47844;SDS011;33605;48.822;8.796;2022-12-18T12:21:27;38.17;;;23.40;;
47844;SDS011;33605;48.822;8.796;2022-12-18T12:29:54;42.83;;;22.67;;
47844;SDS011;33605;48.822;8.796;2022-12-18T12:32:45;44.70;;;24.27;;
47844;SDS011;33605;48.822;8.796;2022-12-18T12:38:26;41.07;;;21.37;;
47844;SDS011;33605;48.822;8.796;2022-12-18T12:40:57;43.93;;;22.70;;
47844;SDS011;33605;48.822;8.796;2022-12-18T12:43:37;41.27;;;22.73;;
47844;SDS011;33605;48.822;8.796;2022-12-18T12:46:11;41.80;;;22.93;;
47844;SDS011;33605;48.822;8.796;2022-12-18T12:51:26;38.93;;;22.43;;
47844;SDS011;33605;48.822;8.796;2022-12-18T12:53:57;40.97;;;23.50;;
47844;SDS011;33605;48.822;8.796;2022-12-18T12:56:25;39.13;;;21.50;;
47844;SDS011;33605;48.822;8.796;2022-12-18T12:59:08;44.60;;;22.40;;
47844;SDS011;33605;48.822;8.796;2022-12-18T13:04:49;36.80;;;23.10;;
47844;SDS011;33605;48.822;8.796;2022-12-18T13:12:59;38.27;;;22.43;;
47844;SDS011;33605;48.822;8.796;2022-12-18T13:15:41;43.80;;;23.80;;
47844;SDS011;33605;48.822;8.796;2022-12-18T13:18:27;40.97;;;23.40;;
47844;SDS011;33605;48.822;8.796;2022-12-18T13:25:48;36.30;;;22.93;;
47844;SDS011;33605;48.822;8.796;2022-12-18T13:28:49;46.83;;;25.37;;
47844;SDS011;33605;48.822;8.796;2022-12-18T13:34:18;36.77;;;22.97;;
47844;SDS011;33605;48.822;8.796;2022-12-18T13:36:46;38.30;;;22.70;;
47844;SDS011;33605;48.822;8.796;2022-12-18T13:41:46;40.67;;;23.53;;
47844;SDS011;33605;48.822;8.796;2022-12-18T13:44:28;38.10;;;22.70;;
47844;SDS011;33605;48.822;8.796;2022-12-18T13:46:58;38.13;;;20.50;;
47844;SDS011;33605;48.822;8.796;2022-12-18T13:49:40;40.40;;;22.67;;
47844;SDS011;33605;48.822;8.796;2022-12-18T13:52:18;37.20;;;21.93;;
47844;SDS011;33605;48.822;8.796;2022-12-18T13:54:52;45.57;;;23.90;;
47844;SDS011;33605;48.822;8.796;2022-12-18T13:57:38;40.40;;;21.97;;
47844;SDS011;33605;48.822;8.796;2022-12-18T14:00:25;46.03;;;23.70;;
47844;SDS011;33605;48.822;8.796;2022-12-18T14:02:53;45.43;;;22.73;;
47844;SDS011;33605;48.822;8.796;2022-12-18T14:05:26;39.20;;;22.50;;
47844;SDS011;33605;48.822;8.796;2022-12-18T14:07:53;45.70;;;23.33;;
47844;SDS011;33605;48.822;8.796;2022-12-18T14:10:19;42.73;;;22.77;;
47844;SDS011;33605;48.822;8.796;2022-12-18T14:12:49;43.00;;;24.17;;
47844;SDS011;33605;48.822;8.796;2022-12-18T14:15:31;41.20;;;23.20;;
47844;SDS011;33605;48.822;8.796;2022-12-18T14:17:59;41.27;;;21.67;;
47844;SDS011;33605;48.822;8.796;2022-12-18T14:20:28;44.70;;;23.03;;
47844;SDS011;33605;48.822;8.796;2022-12-18T14:22:57;40.10;;;21.80;;
47844;SDS011;33605;48.822;8.796;2022-12-18T14:25:24;42.90;;;22.03;;
47844;SDS011;33605;48.822;8.796;2022-12-18T14:33:04;39.87;;;21.80;;
47844;SDS011;33605;48.822;8.796;2022-12-18T14:35:31;42.83;;;23.10;;
47844;SDS011;33605;48.822;8.796;2022-12-18T14:38:19;39.10;;;22.83;;
47844;SDS011;33605;48.822;8.796;2022-12-18T14:40:46;45.90;;;22.27;;
47844;SDS011;33605;48.822;8.796;2022-12-18T14:43:12;41.80;;;22.10;;
47844;SDS011;33605;48.822;8.796;2022-12-18T14:48:06;47.57;;;23.27;;
47844;SDS011;33605;48.822;8.796;2022-12-18T14:50:43;44.30;;;21.30;;
47844;SDS011;33605;48.822;8.796;2022-12-18T14:53:53;47.50;;;22.10;;
47844;SDS011;33605;48.822;8.796;2022-12-18T14:56:03;41.20;;;21.73;;
47844;SDS011;33605;48.822;8.796;2022-12-18T14:58:48;43.17;;;21.77;;
47844;SDS011;33605;48.822;8.796;2022-12-18T15:01:34;41.57;;;23.27;;
47844;SDS011;33605;48.822;8.796;2022-12-18T15:04:03;44.00;;;22.13;;
47844;SDS011;33605;48.822;8.796;2022-12-18T15:06:34;44.60;;;23.37;;
47844;SDS011;33605;48.822;8.796;2022-12-18T15:09:05;42.47;;;22.40;;
47844;SDS011;33605;48.822;8.796;2022-12-18T15:11:47;45.37;;;22.50;;
47844;SDS011;33605;48.822;8.796;2022-12-18T15:14:24;43.60;;;22.00;;
47844;SDS011;33605;48.822;8.796;2022-12-18T15:17:18;41.80;;;21.03;;
47844;SDS011;33605;48.822;8.796;2022-12-18T15:19:47;44.00;;;22.03;;
47844;SDS011;33605;48.822;8.796;2022-12-18T15:22:25;44.43;;;21.77;;
47844;SDS011;33605;48.822;8.796;2022-12-18T15:24:56;46.20;;;21.33;;
47844;SDS011;33605;48.822;8.796;2022-12-18T15:27:27;47.23;;;22.27;;
47844;SDS011;33605;48.822;8.796;2022-12-18T15:29:59;46.47;;;23.00;;
47844;SDS011;33605;48.822;8.796;2022-12-18T15:32:25;51.97;;;23.00;;
47844;SDS011;33605;48.822;8.796;2022-12-18T15:34:50;38.40;;;19.90;;
47844;SDS011;33605;48.822;8.796;2022-12-18T15:37:28;46.60;;;22.83;;
47844;SDS011;33605;48.822;8.796;2022-12-18T15:39:54;45.47;;;20.73;;
47844;SDS011;33605;48.822;8.796;2022-12-18T15:42:19;46.23;;;21.63;;
47844;SDS011;33605;48.822;8.796;2022-12-18T15:45:04;43.93;;;21.40;;
47844;SDS011;33605;48.822;8.796;2022-12-18T15:47:30;45.30;;;22.80;;
47844;SDS011;33605;48.822;8.796;2022-12-18T15:49:55;41.93;;;20.93;;
47844;SDS011;33605;48.822;8.796;2022-12-18T15:52:21;41.17;;;21.30;;
47844;SDS011;33605;48.822;8.796;2022-12-18T15:54:50;41.73;;;20.83;;
47844;SDS011;33605;48.822;8.796;2022-12-18T15:57:35;53.63;;;22.83;;
47844;SDS011;33605;48.822;8.796;2022-12-18T16:00:01;41.33;;;21.60;;
47844;SDS011;33605;48.822;8.796;2022-12-18T16:02:26;41.70;;;20.73;;
47844;SDS011;33605;48.822;8.796;2022-12-18T16:04:53;47.73;;;22.30;;
47844;SDS011;33605;48.822;8.796;2022-12-18T16:07:19;43.60;;;21.60;;
47844;SDS011;33605;48.822;8.796;2022-12-18T16:09:45;51.17;;;22.27;;
47844;SDS011;33605;48.822;8.796;2022-12-18T16:12:17;44.33;;;21.37;;
47844;SDS011;33605;48.822;8.796;2022-12-18T16:14:45;41.37;;;21.17;;
47844;SDS011;33605;48.822;8.796;2022-12-18T16:17:12;49.13;;;22.20;;
47844;SDS011;33605;48.822;8.796;2022-12-18T16:19:38;51.03;;;23.47;;
47844;SDS011;33605;48.822;8.796;2022-12-18T16:22:04;49.47;;;21.73;;
47844;SDS011;33605;48.822;8.796;2022-12-18T16:24:30;37.87;;;20.90;;
47844;SDS011;33605;48.822;8.796;2022-12-18T16:26:58;46.63;;;22.10;;
47844;SDS011;33605;48.822;8.796;2022-12-18T16:29:25;45.23;;;22.20;;
47844;SDS011;33605;48.822;8.796;2022-12-18T16:31:59;42.27;;;21.10;;